Time;durP1;ratioP1;P1;durP2;ratioP2;P2;SDS_P1;SDS_P2;PMS_P1;PMS_P2;Temp;Humidity;BMP_temperature;BMP_pressure;BME280_temperature;BME280_humidity;BME280_pressure;Samples;Min_cycle;Max_cycle;Signal;HPM_P1;HPM_P2
2023/03/14 06:53:22;;;;;;;3.40;1.40;;;;;;;;;;10633975;27;20499;-85
2023/03/14 06:58:23;;;;;;;;;;;;;;;;;;10630076;28;20024;-86
2023/03/14 07:03:25;;;;;;;2.33;1.17;;;;;;;;;;10623397;28;20362;-85
2023/03/14 07:08:26;;;;;;;2.70;0.98;;;;;;;;;;10623764;27;20069;-85
2023/03/14 07:13:31;;;;;;;1.60;0.70;;;;;;;;;;10621788;27;20035;-85
2023/03/14 07:18:32;;;;;;;4.22;0.70;;;;;;;;;;10629550;27;20103;-86
2023/03/14 07:23:34;;;;;;;1.50;0.90;;;;;;;;;;10628377;27;20030;-85
2023/03/14 07:28:35;;;;;;;2.15;0.50;;;;;;;;;;10651707;27;20031;-86
2023/03/14 07:33:36;;;;;;;1.23;0.73;;;;;;;;;;10637570;27;20070;-87
2023/03/14 07:38:37;;;;;;;;;;;;;;;;;;10635913;27;20031;-85
2023/03/14 07:43:38;;;;;;;1.52;0.60;;;;;;;;;;10630347;28;19903;-85
2023/03/14 07:48:40;;;;;;;1.23;0.63;;;;;;;;;;10624624;27;20035;-86
2023/03/14 07:53:42;;;;;;;1.52;0.70;;;;;;;;;;10626369;27;20110;-85
2023/03/14 07:58:43;;;;;;;0.85;0.60;;;;;;;;;;10627763;27;20425;-84
2023/03/14 08:03:44;;;;;;;1.13;0.73;;;;;;;;;;10607415;27;20059;-82
2023/03/14 08:08:45;;;;;;;;;;;;;;;;;;10597682;28;20031;-82
2023/03/14 08:13:49;;;;;;;1.60;0.82;;;;;;;;;;10598313;28;19904;-82
2023/03/14 08:18:50;;;;;;;1.10;0.70;;;;;;;;;;10591965;28;20389;-81
2023/03/14 08:23:51;;;;;;;;;;;;;;;;;;10592884;27;20019;-81
2023/03/14 08:28:52;;;;;;;1.50;0.80;;;;;;;;;;10593539;28;19910;-81
2023/03/14 08:33:54;;;;;;;;;;;;;;;;;;10594482;28;20054;-81
2023/03/14 08:38:55;;;;;;;3.33;1.42;;;;;;;;;;10597183;28;19939;-82
2023/03/14 08:43:56;;;;;;;;;;;;;;;;;;10602737;28;20023;-81
2023/03/14 08:48:57;;;;;;;3.42;1.58;;;;;;;;;;10597549;28;19953;-82
2023/03/14 08:53:58;;;;;;;;;;;;;;;;;;10591341;28;20066;-82
2023/03/14 08:58:59;;;;;;;2.03;1.40;;;;;;;;;;10591965;28;20319;-82
2023/03/14 09:04:00;;;;;;;;;;;;;;;;;;10592488;28;20028;-83
2023/03/14 09:09:01;;;;;;;3.50;1.95;;;;;;;;;;10592870;28;19904;-82
2023/03/14 09:14:02;;;;;;;2.60;1.70;;;;;;;;;;10595884;28;20024;-81
2023/03/14 09:19:03;;;;;;;;;;;;;;;;;;10607002;28;20057;-83
2023/03/14 09:24:05;;;;;;;2.40;1.70;;;;;;;;;;10590198;28;19930;-82
2023/03/14 09:29:06;;;;;;;2.55;1.80;;;;;;;;;;10594535;28;20118;-81
2023/03/14 09:34:07;;;;;;;;;;;;;;;;;;10595014;28;20024;-81
2023/03/14 09:39:08;;;;;;;1.83;1.10;;;;;;;;;;10598482;28;20327;-82
2023/03/14 09:44:10;;;;;;;;;;;;;;;;;;10603526;28;20031;-81
2023/03/14 09:49:15;;;;;;;2.88;1.00;;;;;;;;;;10606876;28;19980;-82
2023/03/14 09:54:30;;;;;;;0.63;0.57;;;;;;;;;;10601407;28;20032;-81
2023/03/14 09:59:32;;;;;;;1.83;1.00;;;;;;;;;;10592707;28;20394;-81
2023/03/14 10:04:33;;;;;;;1.95;1.15;;;;;;;;;;10588967;28;20363;-81
2023/03/14 10:09:35;;;;;;;;;;;;;;;;;;10587297;28;20026;-81
2023/03/14 10:14:37;;;;;;;2.50;0.60;;;;;;;;;;10590815;28;19907;-81
2023/03/14 10:19:50;;;;;;;1.58;0.88;;;;;;;;;;10591577;28;20106;-81
2023/03/14 10:24:53;;;;;;;2.13;1.10;;;;;;;;;;10589753;28;20030;-81
2023/03/14 10:29:55;;;;;;;1.48;0.70;;;;;;;;;;10588933;28;20116;-81
2023/03/14 10:35:06;;;;;;;1.23;0.75;;;;;;;;;;10600378;28;20066;-81
2023/03/14 10:40:14;;;;;;;1.70;1.10;;;;;;;;;;10591059;28;20084;-82
2023/03/14 10:45:36;;;;;;;4.70;2.25;;;;;;;;;;10594249;28;20097;-81
2023/03/14 10:50:37;;;;;;;3.22;0.88;;;;;;;;;;10590745;28;20095;-81
2023/03/14 10:55:38;;;;;;;;;;;;;;;;;;10593097;28;20118;-81
2023/03/14 11:00:39;;;;;;;3.37;1.70;;;;;;;;;;10591126;28;20019;-82
2023/03/14 11:05:43;;;;;;;1.70;0.60;;;;;;;;;;10595286;28;20293;-81
2023/03/14 11:10:46;;;;;;;2.22;0.50;;;;;;;;;;10595729;28;20035;-81
2023/03/14 11:15:54;;;;;;;1.45;0.43;;;;;;;;;;10584601;28;20028;-79
2023/03/14 11:20:58;;;;;;;1.10;0.43;;;;;;;;;;10585425;28;20473;-80
2023/03/14 11:26:12;;;;;;;1.38;0.60;;;;;;;;;;10586210;28;20027;-80
2023/03/14 11:31:13;;;;;;;0.90;0.50;;;;;;;;;;10583163;28;20601;-81
2023/03/14 11:36:17;;;;;;;;;;;;;;;;;;10587654;28;20171;-81
2023/03/14 11:41:27;;;;;;;2.78;1.23;;;;;;;;;;10597051;28;19919;-81
2023/03/14 11:46:34;;;;;;;1.03;0.50;;;;;;;;;;10594886;27;20023;-80
2023/03/14 11:51:42;;;;;;;1.92;0.90;;;;;;;;;;10596132;28;20035;-81
2023/03/14 11:56:47;;;;;;;2.95;0.60;;;;;;;;;;10593582;28;20032;-81
2023/03/14 12:01:56;;;;;;;1.52;0.60;;;;;;;;;;10594344;28;20027;-81
2023/03/14 12:06:57;;;;;;;3.50;1.08;;;;;;;;;;10591741;28;20032;-80
2023/03/14 12:12:01;;;;;;;0.93;0.50;;;;;;;;;;10599924;28;20028;-81
2023/03/14 12:17:20;;;;;;;2.47;1.08;;;;;;;;;;10596531;28;20038;-80
2023/03/14 12:22:27;;;;;;;1.65;0.60;;;;;;;;;;10596426;28;20028;-80
2023/03/14 12:27:43;;;;;;;2.17;0.77;;;;;;;;;;10590961;28;20123;-81
2023/03/14 12:33:04;;;;;;;1.77;0.73;;;;;;;;;;10590796;28;20030;-81
2023/03/14 12:38:10;;;;;;;3.60;1.13;;;;;;;;;;10602834;28;20031;-81
2023/03/14 12:43:25;;;;;;;3.40;1.10;;;;;;;;;;10598536;28;20023;-82
2023/03/14 12:48:26;;;;;;;3.28;0.88;;;;;;;;;;10606797;28;20331;-81
2023/03/14 12:53:46;;;;;;;2.45;0.75;;;;;;;;;;10603615;28;20059;-82
2023/03/14 12:59:06;;;;;;;3.60;0.95;;;;;;;;;;10613842;28;20035;-80
2023/03/14 13:04:13;;;;;;;3.10;0.90;;;;;;;;;;10598524;28;20389;-82
2023/03/14 13:09:33;;;;;;;2.03;0.55;;;;;;;;;;10599234;28;20095;-82
2023/03/14 13:14:34;;;;;;;4.00;1.88;;;;;;;;;;10598069;28;20027;-84
2023/03/14 13:19:35;;;;;;;3.63;0.90;;;;;;;;;;10597979;28;20028;-80
2023/03/14 13:24:36;;;;;;;;;;;;;;;;;;10602072;28;20044;-81
2023/03/14 13:29:37;;;;;;;2.72;1.30;;;;;;;;;;10603859;28;20321;-81
2023/03/14 13:34:38;;;;;;;6.70;1.50;;;;;;;;;;10610291;28;20035;-80
2023/03/14 13:39:39;;;;;;;;;;;;;;;;;;10607592;28;20089;-81
2023/03/14 13:44:40;;;;;;;4.13;1.25;;;;;;;;;;10593470;28;19922;-81
2023/03/14 13:49:41;;;;;;;4.15;0.88;;;;;;;;;;10596832;28;20103;-81
2023/03/14 13:54:42;;;;;;;8.27;1.88;;;;;;;;;;10601192;28;20024;-81
2023/03/14 13:59:43;;;;;;;;;;;;;;;;;;10593693;28;20095;-80
2023/03/14 14:04:44;;;;;;;4.30;1.38;;;;;;;;;;10594312;28;19904;-81
2023/03/14 14:09:49;;;;;;;6.72;1.90;;;;;;;;;;10595491;28;20411;-81
2023/03/14 14:14:50;;;;;;;5.70;1.58;;;;;;;;;;10593499;28;20035;-81
2023/03/14 14:19:52;;;;;;;6.75;1.88;;;;;;;;;;10593434;28;20032;-81
2023/03/14 14:24:53;;;;;;;5.40;1.38;;;;;;;;;;10594119;28;20057;-81
2023/03/14 14:30:25;;;;;;;9.95;1.95;;;;;;;;;;10593946;28;20111;-81
2023/03/14 14:35:33;;;;;;;5.65;1.80;;;;;;;;;;10595197;28;20028;-82
2023/03/14 14:40:34;;;;;;;4.65;1.50;;;;;;;;;;10595717;28;20512;-82
2023/03/14 14:45:35;;;;;;;4.35;1.33;;;;;;;;;;10604748;28;20044;-81
2023/03/14 14:50:36;;;;;;;;;;;;;;;;;;10609714;28;20047;-82
2023/03/14 14:55:41;;;;;;;4.65;1.35;;;;;;;;;;10602048;28;19904;-82
2023/03/14 15:00:46;;;;;;;5.43;1.25;;;;;;;;;;10591486;28;20450;-82
2023/03/14 15:05:47;;;;;;;4.03;1.23;;;;;;;;;;10592706;28;20469;-81
2023/03/14 15:10:48;;;;;;;4.57;1.40;;;;;;;;;;10592985;28;20024;-81
2023/03/14 15:15:55;;;;;;;4.88;1.20;;;;;;;;;;10601747;28;20032;-82
2023/03/14 15:20:56;;;;;;;4.30;1.58;;;;;;;;;;10600262;28;20028;-83
2023/03/14 15:25:57;;;;;;;5.93;1.65;;;;;;;;;;10602711;28;20023;-84
2023/03/14 15:30:59;;;;;;;3.58;1.20;;;;;;;;;;10604091;28;20422;-82
2023/03/14 15:36:01;;;;;;;3.53;1.17;;;;;;;;;;10603892;28;20032;-83
2023/03/14 15:41:02;;;;;;;4.88;1.35;;;;;;;;;;10599677;28;20147;-82
2023/03/14 15:46:03;;;;;;;;;;;;;;;;;;10602091;28;20023;-84
2023/03/14 15:51:04;;;;;;;3.90;1.00;;;;;;;;;;10602527;28;19916;-85
2023/03/14 15:56:05;;;;;;;;;;;;;;;;;;10603000;28;20020;-84
2023/03/14 16:01:09;;;;;;;3.85;1.20;;;;;;;;;;10601049;28;19984;-84
2023/03/14 16:06:10;;;;;;;5.72;1.30;;;;;;;;;;10614954;28;20039;-82
2023/03/14 16:11:12;;;;;;;3.92;1.20;;;;;;;;;;10624506;28;20032;-82
2023/03/14 16:16:14;;;;;;;4.20;1.23;;;;;;;;;;10598027;28;20055;-82
2023/03/14 16:21:16;;;;;;;3.88;1.00;;;;;;;;;;10596353;28;20053;-83
2023/03/14 16:26:18;;;;;;;3.65;0.85;;;;;;;;;;10599809;28;20020;-82
2023/03/14 16:31:22;;;;;;;5.18;1.67;;;;;;;;;;10599806;28;20122;-83
2023/03/14 16:36:23;;;;;;;3.28;1.00;;;;;;;;;;10627954;28;20028;-83
2023/03/14 16:41:24;;;;;;;3.95;0.95;;;;;;;;;;10604727;28;20031;-84
2023/03/14 16:46:29;;;;;;;2.28;0.80;;;;;;;;;;10597831;28;20024;-85
2023/03/14 16:51:30;;;;;;;3.65;1.30;;;;;;;;;;10599009;28;20031;-84
2023/03/14 16:56:31;;;;;;;;;;;;;;;;;;10599075;28;20122;-82
2023/03/14 17:01:32;;;;;;;3.65;0.95;;;;;;;;;;10593621;28;20334;-84
2023/03/14 17:06:33;;;;;;;;;;;;;;;;;;10605165;28;20114;-84
2023/03/14 17:11:34;;;;;;;3.63;1.10;;;;;;;;;;10603505;28;20352;-83
2023/03/14 17:16:35;;;;;;;2.78;1.00;;;;;;;;;;10608106;28;20032;-84
2023/03/14 17:21:36;;;;;;;;;;;;;;;;;;10612273;28;20366;-80
2023/03/14 17:26:37;;;;;;;5.50;1.40;;;;;;;;;;10607059;28;19994;-82
2023/03/14 17:31:38;;;;;;;;;;;;;;;;;;10595790;28;20427;-82
2023/03/14 17:36:39;;;;;;;3.80;1.33;;;;;;;;;;10594333;28;19910;-82
2023/03/14 17:41:40;;;;;;;;;;;;;;;;;;10594476;28;20470;-81
2023/03/14 17:46:41;;;;;;;5.93;1.38;;;;;;;;;;10593715;28;19904;-82
2023/03/14 17:51:42;;;;;;;4.43;1.42;;;;;;;;;;10595571;28;20043;-81
2023/03/14 17:56:43;;;;;;;;;;;;;;;;;;10598809;28;20027;-81
2023/03/14 18:01:44;;;;;;;3.97;1.13;;;;;;;;;;10593525;28;19908;-81
2023/03/14 18:06:45;;;;;;;;;;;;;;;;;;10593187;28;20107;-81
2023/03/14 18:11:46;;;;;;;3.03;1.13;;;;;;;;;;10595035;28;19903;-82
2023/03/14 18:16:48;;;;;;;;;;;;;;;;;;10595273;28;20034;-82
2023/03/14 18:21:50;;;;;;;3.65;1.60;;;;;;;;;;10598779;28;19908;-81
2023/03/14 18:26:51;;;;;;;7.40;1.70;;;;;;;;;;10615573;28;20050;-80
2023/03/14 18:31:53;;;;;;;;;;;;;;;;;;10618966;28;20030;-81
2023/03/14 18:36:54;;;;;;;3.53;1.00;;;;;;;;;;10594080;28;19910;-79
2023/03/14 18:41:55;;;;;;;;;;;;;;;;;;10594566;28;20050;-79
2023/03/14 18:46:56;;;;;;;5.38;1.80;;;;;;;;;;10594687;28;19903;-80
2023/03/14 18:51:57;;;;;;;;;;;;;;;;;;10595023;28;20154;-80
2023/03/14 18:56:59;;;;;;;3.83;1.27;;;;;;;;;;10596647;28;19910;-80
2023/03/14 19:02:00;;;;;;;2.97;0.85;;;;;;;;;;10593845;28;20495;-80
2023/03/14 19:07:01;;;;;;;2.97;1.10;;;;;;;;;;10595078;28;20489;-80
2023/03/14 19:12:02;;;;;;;;;;;;;;;;;;10594369;28;20070;-80
2023/03/14 19:17:03;;;;;;;2.60;1.05;;;;;;;;;;10596073;28;19956;-79
2023/03/14 19:22:04;;;;;;;;;;;;;;;;;;10596132;28;20031;-79
2023/03/14 19:27:05;;;;;;;3.30;1.45;;;;;;;;;;10598144;28;19904;-79
2023/03/14 19:32:06;;;;;;;3.30;1.17;;;;;;;;;;10598220;28;20048;-79
2023/03/14 19:37:07;;;;;;;2.50;1.10;;;;;;;;;;10615996;28;20043;-79
2023/03/14 19:42:08;;;;;;;;;;;;;;;;;;10613995;28;20035;-79
2023/03/14 19:47:09;;;;;;;5.07;1.70;;;;;;;;;;10614572;28;20444;-80
2023/03/14 19:52:09;;;;;;;;;;;;;;;;;;10610625;28;20131;-79
2023/03/14 19:57:10;;;;;;;4.15;1.23;;;;;;;;;;10603141;28;19963;-78
2023/03/14 20:02:11;;;;;;;;;;;;;;;;;;10605351;28;20049;-80
2023/03/14 20:07:13;;;;;;;7.93;1.48;;;;;;;;;;10602632;28;19924;-79
2023/03/14 20:12:14;;;;;;;6.25;1.50;;;;;;;;;;10604299;28;20028;-80
2023/03/14 20:17:15;;;;;;;;;;;;;;;;;;10607098;28;20049;-78
